עמוד ראשי
METAR-TAF:

METAR-TAF

שדות תעופה :

אל פאסו, טקסס, ארצות הברית

קו רוחב: 31-48-40N, קו אורך: 106-22-33W, גובה: 1206מטר

תצפית מזג אוויר נוכחית

הדו"ח נערך לפני 45דקות, בשעה 07:51 UTC
רוח 6קשר מכיוון דרום
טמפרטורת 27 צלסיוס
לחות 12%
לחץ 1011 hPa
ראות: 16.1קילומטר
שמיים נקיים

METAR: KELP 160751Z 17006KT 10SM CLR 27/M05 A2984 RMK AO2 SLP016 T02671050

זמן: 03:36 (08:36 UTC)

תחזית

הדו"ח נערך לפני 2 שעות ו 39דקות, בשעה 05:57 UTC
תחזית בתוקף מ 16 ב 06 UTC עד 17 ב 06 UTC
רוח 6קשר מכיוון דרום-מערב
ראות: 10קילומטר
שמיים נקיים
מ 16 ב 1800UTC
רוח 10קשר מכיוון מערב/דרום-מערב עם משבים עד 18קשר
ראות: 10קילומטר
שמיים נקיים
מ 17 ב 0200UTC
רוח 8קשר מכיוון מערב/דרום-מערב
ראות: 10קילומטר
שמיים נקיים

TAF: KELP 160557Z 1606/1706 22006KT P6SM SKC FM161800 24010G18KT P6SM SKC FM170200 25008KT P6SM SKC

תצפיות ותחזיות מזג אוויר לגבי יותר מ- 4,000 שדות תעופה ברחבי העולם. דוחות METAR ו- TAF.

התחנות הזמינות מסומנות בנקודות צהובות ואדומות על גבי המפה.

העבר את העכבר לנקודה הצבעונית על מנת לראות את שם התחנה.

לאחר מכן, לחץ כדי לראות את תוכן ואת תחזיות מזג האוויר.

כדי לשנות את המפה: לחץ על הכפתורים הירוקים עם הפלוס השחור כדי להתקרב; על הכפתור הירוק עם המקף כדי להתרחק; או בחיצים הירוקים למפות סמוכות.


METAR-TAF: